Edson Airport
CYET : now visible

Airfield :











YOU CAN JOIN US ON...

 
LOGIN :

Register | Disclaimer

   EN    FR    IT 

 









Legend :    VFR   Marginal VFR   IFR   Intensive IFR   Very Intensive IFR
Visi :
Ceiling :
>= 8 km
>= 3000ft
5 to 8 km
1000 to 3000 ft
1500m to 5 km
500 to 1000 ft
800 to 1500m
200 to 500 ft
< 800m
< 200 ft
Symbols :   Thunderstorms  Fog  Heavy snow  Heavy precipitations  Wind > 20 kt






- Airport Elevation : 3041 ft
- IATA code : YET


CYET - Edson

CURRENT METAR :
  • 221134Z AUTO 35008KT 7SM -SN OVC029 M05/M07 A3011 RMK SLP249

EXPIRED METARs :
  • 221100Z AUTO 35008KT 1SM -SN VV016 M05/M06 A3010 RMK SLP223
  • 221000Z AUTO 34010G16KT 1 1/4SM -SN OVC012 M04/M06 A3007 RMK SLP212
  • 220941Z AUTO 31008KT 1SM -SN VV010 M04/M05 A3007 RMK SLP232
  • 220900Z AUTO 33012G19KT 1 3/4SM -SN OVC013 M04/M06 A3006 RMK SLP205
  • 220838Z AUTO 33009G22KT 2 1/2SM -SN OVC021 M04/M06 A3005 RMK VIS VRB 2-3 SLP225

TAF N/A
CZEG FIR / North America



MET'MAP, your aeronautical weather chart ! - Copyright ORBIFLY December 2007 - Disclaimer

ORBIFLY MET'MAP TEAM :

Programming & Development : Alexandra Zaïnal
Concept & original design : Baudouin d'Aumeries
Assistance for programming : Marc-Olivier Méhu
Technical & hardware support : Manuel Goepfert

Contact : metmap@orbifly.com




SOURCES & CREDITS :

   NOAA       Earth
Advisory